createdAt,value
2019-02-10T00:02:10.103Z,76928.62
2019-02-10T00:04:40.510Z,76933.67
2019-02-10T00:07:11.035Z,76934.69
2019-02-10T00:09:41.408Z,76937.73
2019-02-10T00:12:11.897Z,76933.67
2019-02-10T00:14:42.330Z,76922.55
2019-02-10T00:17:19.399Z,76919.51
2019-02-10T00:19:51.051Z,76919.51
2019-02-10T00:22:24.597Z,76919.51
2019-02-10T00:24:55.800Z,76911.41
2019-02-10T00:27:26.409Z,76900.28
2019-02-10T00:29:57.183Z,76898.25
2019-02-10T00:32:27.627Z,76896.23
2019-02-10T00:34:59.986Z,76890.16
2019-02-10T00:37:34.235Z,76886.11
2019-02-10T00:40:04.864Z,76886.11
2019-02-10T00:42:39.804Z,76886.11
2019-02-10T00:45:14.745Z,76880.03
2019-02-10T00:47:45.165Z,76873.95
2019-02-10T00:50:17.958Z,76866.88
2019-02-10T00:52:52.194Z,76860.80
2019-02-10T00:55:25.419Z,76852.70
2019-02-10T00:57:55.939Z,76838.53
2019-02-10T01:00:32.177Z,76836.51
2019-02-10T01:03:06.038Z,76835.50
2019-02-10T01:05:37.554Z,76822.34
2019-02-10T01:08:08.086Z,76811.20
2019-02-10T01:10:38.554Z,76814.23
2019-02-10T01:13:10.021Z,76812.22
2019-02-10T01:15:41.780Z,76802.09
2019-02-10T01:18:12.800Z,76798.05
2019-02-10T01:20:45.011Z,76797.03
2019-02-10T01:23:15.485Z,76783.88
2019-02-10T01:26:05.746Z,76778.81
2019-02-10T01:28:43.548Z,76763.63
2019-02-10T01:31:17.500Z,76771.73
2019-02-10T01:33:48.073Z,76771.73
2019-02-10T01:36:22.490Z,76766.67
2019-02-10T01:38:52.954Z,76765.66
2019-02-10T01:41:26.850Z,76766.67
2019-02-10T01:43:59.152Z,76751.48
2019-02-10T01:46:30.487Z,76747.44
2019-02-10T01:49:02.479Z,76738.33
2019-02-10T01:51:33.764Z,76722.13
2019-02-10T01:54:04.685Z,76711.00
2019-02-10T01:56:35.318Z,76695.81
2019-02-10T01:59:05.861Z,76693.80
2019-02-10T02:01:37.400Z,76681.65
2019-02-10T02:04:07.901Z,76674.56
2019-02-10T02:06:38.754Z,76664.44
2019-02-10T02:09:15.631Z,76651.28
2019-02-10T02:11:48.744Z,76645.21
2019-02-10T02:14:19.569Z,76639.14
2019-02-10T02:16:50.326Z,76641.16
2019-02-10T02:19:20.770Z,76634.08
2019-02-10T02:21:51.234Z,76635.09
2019-02-10T02:24:21.746Z,76637.11
2019-02-10T02:26:52.236Z,76630.03
2019-02-10T02:29:22.705Z,76632.05
2019-02-10T02:31:53.130Z,76639.14
2019-02-10T02:34:23.559Z,76645.21
2019-02-10T02:36:53.989Z,76657.36
2019-02-10T02:39:27.403Z,76654.32
2019-02-10T02:41:59.498Z,76670.52
2019-02-10T02:44:30.027Z,76676.59
2019-02-10T02:47:00.471Z,76676.59
2019-02-10T02:49:46.672Z,76685.70
2019-02-10T02:52:20.225Z,76686.70
2019-02-10T02:54:50.736Z,76691.77
2019-02-10T02:57:21.110Z,76695.81
2019-02-10T02:59:51.580Z,76688.73
2019-02-10T03:02:22.007Z,76703.91
2019-02-10T03:04:52.478Z,76711.00
2019-02-10T03:07:22.863Z,76711.00
2019-02-10T03:09:53.256Z,76714.03
2019-02-10T03:12:25.151Z,76714.03
2019-02-10T03:14:58.111Z,76717.08
2019-02-10T03:17:28.562Z,76713.02
2019-02-10T03:19:59.018Z,76717.08
2019-02-10T03:22:29.501Z,76716.06
2019-02-10T03:25:00.521Z,76707.96
2019-02-10T03:27:30.945Z,76699.87
2019-02-10T03:30:01.402Z,76694.80
2019-02-10T03:32:31.810Z,76696.83
2019-02-10T03:35:02.239Z,76696.83
2019-02-10T03:37:32.752Z,76691.77
2019-02-10T03:40:03.284Z,76686.70
2019-02-10T03:42:36.479Z,76679.63
2019-02-10T03:45:07.559Z,76671.53
2019-02-10T03:47:37.977Z,76675.58
2019-02-10T03:50:10.481Z,76667.48
2019-02-10T03:52:40.857Z,76659.38
2019-02-10T03:55:11.408Z,76638.13
2019-02-10T03:57:41.851Z,76639.14
2019-02-10T04:00:12.686Z,76641.16
2019-02-10T04:02:43.073Z,76612.83
2019-02-10T04:05:13.599Z,76616.88
2019-02-10T04:07:43.932Z,76622.95
2019-02-10T04:10:14.320Z,76616.88
2019-02-10T04:12:44.832Z,76607.77
2019-02-10T04:15:15.410Z,76600.68
2019-02-10T04:17:46.173Z,76606.75
2019-02-10T04:20:16.574Z,76607.77
2019-02-10T04:22:48.393Z,76600.68
2019-02-10T04:25:20.938Z,76592.58
2019-02-10T04:27:51.319Z,76583.47
2019-02-10T04:30:21.653Z,76578.41
2019-02-10T04:32:52.018Z,76571.33
2019-02-10T04:35:22.435Z,76569.30
2019-02-10T04:37:52.797Z,76559.19
2019-02-10T04:40:23.345Z,76559.19
2019-02-10T04:42:53.707Z,76545.02
2019-02-10T04:45:24.116Z,76540.97
2019-02-10T04:47:54.859Z,76529.83
2019-02-10T04:50:26.577Z,76526.80
2019-02-10T04:52:57.069Z,76515.66
2019-02-10T04:55:27.445Z,76505.55
2019-02-10T04:57:57.871Z,76497.45
2019-02-10T05:00:28.374Z,76494.41
2019-02-10T05:02:58.741Z,76486.31
2019-02-10T05:05:29.169Z,76468.09
2019-02-10T05:07:59.639Z,76461.02
2019-02-10T05:10:30.173Z,76449.88
2019-02-10T05:13:00.474Z,76448.87
2019-02-10T05:15:30.888Z,76446.84
2019-02-10T05:18:01.332Z,76438.75
2019-02-10T05:20:31.917Z,76433.69
2019-02-10T05:23:02.373Z,76430.66
2019-02-10T05:25:32.757Z,76414.45
2019-02-10T05:28:03.170Z,76409.40
2019-02-10T05:30:33.512Z,76394.22
2019-02-10T05:33:04.048Z,76385.11
2019-02-10T05:35:34.402Z,76376.00
2019-02-10T05:38:04.851Z,76384.09
2019-02-10T05:40:35.201Z,76367.91
2019-02-10T05:43:08.585Z,76358.80
2019-02-10T05:45:39.326Z,76352.72
2019-02-10T05:48:09.748Z,76353.73
2019-02-10T05:50:40.173Z,76346.65
2019-02-10T05:53:10.574Z,76341.59
2019-02-10T05:55:43.304Z,76333.50
2019-02-10T05:58:15.352Z,76329.45
2019-02-10T06:00:48.970Z,76318.31
2019-02-10T06:03:22.370Z,76312.24
2019-02-10T06:05:55.599Z,76307.18
2019-02-10T06:08:25.987Z,76302.13
2019-02-10T06:10:56.387Z,76297.06
2019-02-10T06:13:26.688Z,76298.08
2019-02-10T06:15:57.088Z,76288.97
2019-02-10T06:18:27.444Z,76275.81
2019-02-10T06:20:57.852Z,76268.72
2019-02-10T06:23:28.201Z,76257.59
2019-02-10T06:25:58.574Z,76247.47
2019-02-10T06:28:28.930Z,76240.39
2019-02-10T06:30:59.397Z,76227.23
2019-02-10T06:33:29.757Z,76219.14
2019-02-10T06:36:02.763Z,76219.14
2019-02-10T06:38:33.209Z,76218.13
2019-02-10T06:41:03.667Z,76199.91
2019-02-10T06:43:34.107Z,76197.88
2019-02-10T06:46:05.806Z,76192.83
2019-02-10T06:48:36.271Z,76177.64
2019-02-10T06:51:06.696Z,76170.56
2019-02-10T06:53:37.784Z,76164.49
2019-02-10T06:56:11.205Z,76144.25
2019-02-10T06:58:41.654Z,76129.07
2019-02-10T07:01:23.680Z,76115.91
2019-02-10T07:04:06.821Z,76107.82
2019-02-10T07:06:37.305Z,76096.69
2019-02-10T07:09:08.063Z,76084.55
2019-02-10T07:11:38.366Z,76080.50
2019-02-10T07:14:44.368Z,76066.33
2019-02-10T07:18:04.813Z,76059.25
2019-02-10T07:20:44.334Z,76058.23
2019-02-10T07:24:10.589Z,76042.05
2019-02-10T07:27:01.906Z,76025.85
2019-02-10T07:29:53.530Z,76023.83
2019-02-10T07:32:32.025Z,76009.66
2019-02-10T07:35:26.269Z,75986.39
2019-02-10T07:38:48.755Z,75987.40
2019-02-10T07:41:44.600Z,75975.26
2019-02-10T07:44:52.606Z,75973.23
2019-02-10T07:47:55.296Z,75961.09
2019-02-10T07:50:50.042Z,75947.94
2019-02-10T07:53:43.815Z,75940.85
2019-02-10T07:56:58.437Z,75926.69
2019-02-10T08:00:03.933Z,75925.67
2019-02-10T08:03:24.140Z,75904.42
2019-02-10T08:06:11.242Z,75902.40
2019-02-10T08:09:12.848Z,75877.10
2019-02-10T08:11:59.125Z,75858.89
2019-02-10T08:14:57.392Z,75839.66
2019-02-10T08:18:02.457Z,75824.48
2019-02-10T08:20:56.281Z,75806.27
2019-02-10T08:24:18.233Z,75791.09
2019-02-10T08:27:36.280Z,75781.98
2019-02-10T08:30:46.542Z,75776.92
2019-02-10T08:33:42.601Z,75755.67
2019-02-10T08:36:54.608Z,75735.44
2019-02-10T08:39:50.730Z,75730.38
2019-02-10T08:42:42.459Z,75724.31
2019-02-10T08:45:35.411Z,75718.23
2019-02-10T08:48:37.840Z,75701.04
2019-02-10T08:51:36.567Z,75677.77
2019-02-10T08:54:07.418Z,75682.83
2019-02-10T08:56:38.725Z,75666.63
2019-02-10T08:59:10.136Z,75659.55
2019-02-10T09:01:40.511Z,75652.47
2019-02-10T09:04:13.691Z,75649.44
2019-02-10T09:06:46.528Z,75643.36
2019-02-10T09:09:17.038Z,75636.28
2019-02-10T09:11:47.442Z,75641.34
2019-02-10T09:14:18.039Z,75620.09
2019-02-10T09:16:49.543Z,75614.02
2019-02-10T09:19:20.615Z,75622.12
2019-02-10T09:21:52.341Z,75605.92
2019-02-10T09:24:22.943Z,75620.09
2019-02-10T09:26:53.665Z,75643.36
2019-02-10T09:29:24.872Z,75635.27
2019-02-10T09:31:55.941Z,75645.39
2019-02-10T09:34:29.340Z,75650.45
2019-02-10T09:36:59.751Z,75658.54
2019-02-10T09:39:30.224Z,75656.52
2019-02-10T09:42:00.729Z,75655.50
2019-02-10T09:44:31.503Z,75653.48
2019-02-10T09:47:04.778Z,75653.48
2019-02-10T09:49:35.131Z,75666.63
2019-02-10T09:52:05.619Z,75662.59
2019-02-10T09:54:36.045Z,75670.69
2019-02-10T09:57:06.427Z,75672.70
2019-02-10T09:59:36.768Z,75674.73
2019-02-10T10:02:07.351Z,75664.61
2019-02-10T10:04:40.768Z,75675.74
2019-02-10T10:07:11.191Z,75675.74
2019-02-10T10:09:41.611Z,75676.75
2019-02-10T10:12:12.033Z,75684.84
2019-02-10T10:14:42.495Z,75688.89
2019-02-10T10:17:12.915Z,75689.91
2019-02-10T10:19:43.413Z,75684.84
2019-02-10T10:22:13.773Z,75678.78
2019-02-10T10:24:50.367Z,75682.83
2019-02-10T10:27:16.353Z,75680.80
2019-02-10T10:29:48.841Z,75682.83
2019-02-10T10:32:19.338Z,75683.84
2019-02-10T10:34:49.699Z,75683.84
2019-02-10T10:37:20.056Z,75682.83
2019-02-10T10:39:50.524Z,75683.84
2019-02-10T10:42:21.823Z,75689.91
2019-02-10T10:44:52.310Z,75670.69
2019-02-10T10:47:22.730Z,75678.78
2019-02-10T10:49:53.067Z,75677.77
2019-02-10T10:52:26.587Z,75674.73
2019-02-10T10:54:57.167Z,75675.74
2019-02-10T10:57:27.921Z,75672.70
2019-02-10T11:00:03.565Z,75665.63
2019-02-10T11:02:34.075Z,75663.60
2019-02-10T11:05:04.564Z,75662.59
2019-02-10T11:07:34.940Z,75661.58
2019-02-10T11:10:05.926Z,75667.64
2019-02-10T11:12:38.634Z,75679.79
2019-02-10T11:15:12.432Z,75674.73
2019-02-10T11:17:42.825Z,75671.70
2019-02-10T11:20:13.403Z,75657.53
2019-02-10T11:22:44.693Z,75658.54
2019-02-10T11:25:15.134Z,75655.50
2019-02-10T11:27:47.261Z,75649.44
2019-02-10T11:30:17.730Z,75652.47
2019-02-10T11:32:48.442Z,75654.49
2019-02-10T11:35:19.181Z,75645.39
2019-02-10T11:37:49.461Z,75647.41
2019-02-10T11:40:19.937Z,75645.39
2019-02-10T11:42:50.521Z,75638.30
2019-02-10T11:45:20.965Z,75635.27
2019-02-10T11:48:11.077Z,75640.33
2019-02-10T11:50:41.774Z,75639.31
2019-02-10T11:53:12.213Z,75644.38
2019-02-10T11:55:42.584Z,75647.41
2019-02-10T11:58:13.010Z,75648.42
2019-02-10T12:00:43.498Z,75647.41
2019-02-10T12:03:14.348Z,75655.50
2019-02-10T12:05:45.004Z,75641.34
2019-02-10T12:08:15.476Z,75649.44
2019-02-10T12:10:45.945Z,75652.47
2019-02-10T12:13:16.539Z,75646.40
2019-02-10T12:15:47.003Z,75663.60
2019-02-10T12:18:17.539Z,75658.54
2019-02-10T12:20:50.983Z,75671.70
2019-02-10T12:23:23.209Z,75680.80
2019-02-10T12:25:53.617Z,75701.04
2019-02-10T12:28:24.652Z,75709.13
2019-02-10T12:30:55.155Z,75718.23
2019-02-10T12:33:28.857Z,75723.30
2019-02-10T12:35:59.266Z,75727.34
2019-02-10T12:38:32.432Z,75726.33
2019-02-10T12:41:03.012Z,75734.43
2019-02-10T12:43:33.483Z,75730.38
2019-02-10T12:46:04.172Z,75725.32
2019-02-10T12:48:35.471Z,75730.38
2019-02-10T12:51:06.075Z,75729.37
2019-02-10T12:53:37.016Z,75747.58
2019-02-10T12:56:07.440Z,75758.71
2019-02-10T12:58:38.003Z,75756.69
2019-02-10T13:01:09.335Z,75769.84
2019-02-10T13:03:42.128Z,75774.91
2019-02-10T13:06:13.928Z,75775.91
2019-02-10T13:08:44.336Z,75772.88
2019-02-10T13:11:14.959Z,75773.89
2019-02-10T13:13:45.361Z,75775.91
2019-02-10T13:16:17.835Z,75755.67
2019-02-10T13:18:48.534Z,75717.23
2019-02-10T13:21:21.982Z,75653.48
2019-02-10T13:23:53.819Z,75576.58
2019-02-10T13:26:24.660Z,75506.77
2019-02-10T13:28:55.853Z,75506.77
2019-02-10T13:31:26.607Z,75563.43
2019-02-10T13:33:57.748Z,75585.69
2019-02-10T13:36:28.421Z,75592.77
2019-02-10T13:39:02.168Z,75623.13
2019-02-10T13:41:37.907Z,75634.26
2019-02-10T13:44:08.542Z,75663.60
2019-02-10T13:46:41.220Z,75666.63
2019-02-10T13:49:13.190Z,75669.67
2019-02-10T13:51:46.415Z,75674.73
2019-02-10T13:54:18.822Z,75675.74
2019-02-10T13:56:49.537Z,75680.80
2019-02-10T13:59:19.907Z,75680.80
2019-02-10T14:01:50.375Z,75675.74
2019-02-10T14:04:20.652Z,75685.86
2019-02-10T14:06:51.502Z,75689.91
2019-02-10T14:09:24.818Z,75678.78
2019-02-10T14:11:55.534Z,75690.92
2019-02-10T14:14:26.161Z,75684.84
2019-02-10T14:16:56.739Z,75698.00
2019-02-10T14:19:27.301Z,75695.98
2019-02-10T14:21:58.062Z,75705.09
2019-02-10T14:24:28.484Z,75710.14
2019-02-10T14:26:59.256Z,75704.08
2019-02-10T14:29:29.916Z,75707.11
2019-02-10T14:32:00.736Z,75715.20
2019-02-10T14:34:33.459Z,75733.42
2019-02-10T14:37:03.973Z,75755.67
2019-02-10T14:39:34.527Z,75773.89
2019-02-10T14:42:05.473Z,75789.06
2019-02-10T14:44:36.105Z,75814.36
2019-02-10T14:47:06.626Z,75823.47
2019-02-10T14:49:37.539Z,75843.71
2019-02-10T14:52:08.044Z,75856.86
2019-02-10T14:54:38.561Z,75859.91
2019-02-10T14:57:09.470Z,75872.05
2019-02-10T14:59:45.231Z,75873.05
2019-02-10T15:02:16.085Z,75878.11
2019-02-10T15:05:03.755Z,75889.24
2019-02-10T15:07:38.035Z,75903.41
2019-02-10T15:10:13.798Z,75896.33
2019-02-10T15:12:44.758Z,75898.35
2019-02-10T15:15:15.686Z,75897.34
2019-02-10T15:17:47.941Z,75905.44
2019-02-10T15:20:18.413Z,75898.35
2019-02-10T15:22:48.966Z,75914.55
2019-02-10T15:25:19.452Z,75915.55
2019-02-10T15:27:50.483Z,75916.56
2019-02-10T15:30:20.853Z,75917.58
2019-02-10T15:32:54.110Z,75906.45
2019-02-10T15:35:26.101Z,75914.55
2019-02-10T15:37:58.381Z,75913.53
2019-02-10T15:40:32.974Z,75910.50
2019-02-10T15:43:05.435Z,75910.50
2019-02-10T15:45:36.367Z,75926.69
2019-02-10T15:48:10.033Z,75914.55
2019-02-10T15:50:40.547Z,75915.55
2019-02-10T15:53:11.360Z,75919.60
2019-02-10T15:55:42.110Z,75904.42
2019-02-10T15:58:13.664Z,75905.44
2019-02-10T16:00:44.131Z,75910.50
2019-02-10T16:03:14.640Z,75921.63
2019-02-10T16:05:45.274Z,75931.75
2019-02-10T16:08:15.753Z,75936.80
2019-02-10T16:10:47.023Z,75950.97
2019-02-10T16:13:18.397Z,75964.13
2019-02-10T16:15:54.864Z,75972.22
2019-02-10T16:18:25.412Z,75984.36
2019-02-10T16:20:55.838Z,76001.56
2019-02-10T16:23:29.985Z,76016.75
2019-02-10T16:26:00.635Z,76029.91
2019-02-10T16:28:31.897Z,76027.88
2019-02-10T16:31:05.854Z,76036.98
2019-02-10T16:33:36.931Z,76060.26
2019-02-10T16:36:08.330Z,76056.21
2019-02-10T16:38:39.329Z,76081.52
2019-02-10T16:41:11.506Z,76086.57
2019-02-10T16:43:42.009Z,76076.45
2019-02-10T16:46:12.433Z,76091.63
2019-02-10T16:48:45.625Z,76099.73
2019-02-10T16:51:16.018Z,76095.67
2019-02-10T16:53:46.542Z,76116.92
2019-02-10T16:56:20.165Z,76119.97
2019-02-10T16:58:58.018Z,76126.03
2019-02-10T17:01:28.656Z,76133.13
2019-02-10T17:04:02.872Z,76138.18
2019-02-10T17:06:33.326Z,76148.30
2019-02-10T17:09:05.968Z,76160.45
2019-02-10T17:11:37.454Z,76161.45
2019-02-10T17:14:08.271Z,76170.56
2019-02-10T17:16:38.742Z,76185.74
2019-02-10T17:19:09.377Z,76192.83
2019-02-10T17:21:39.805Z,76200.92
2019-02-10T17:24:10.820Z,76197.88
2019-02-10T17:26:41.363Z,76198.89
2019-02-10T17:29:11.922Z,76208.00
2019-02-10T17:31:42.464Z,76209.02
2019-02-10T17:34:13.242Z,76225.21
2019-02-10T17:36:45.941Z,76222.17
2019-02-10T17:39:19.330Z,76233.30
2019-02-10T17:41:50.604Z,76232.30
2019-02-10T17:44:21.180Z,76242.41
2019-02-10T17:46:51.695Z,76258.61
2019-02-10T17:49:22.251Z,76253.55
2019-02-10T17:51:52.703Z,76253.55
2019-02-10T17:54:26.030Z,76264.67
2019-02-10T17:56:56.840Z,76268.72
2019-02-10T17:59:27.215Z,76268.72
2019-02-10T18:01:57.606Z,76277.83
2019-02-10T18:04:28.073Z,76295.04
2019-02-10T18:06:58.508Z,76297.06
2019-02-10T18:09:29.000Z,76308.19
2019-02-10T18:11:59.530Z,76309.20
2019-02-10T18:15:01.110Z,76331.47
2019-02-10T18:17:44.899Z,76318.31
2019-02-10T18:20:37.323Z,76343.61
2019-02-10T18:23:25.393Z,76340.58
2019-02-10T18:26:02.405Z,76349.69
2019-02-10T18:28:50.306Z,76373.98
2019-02-10T18:31:34.211Z,76371.95
2019-02-10T18:34:26.351Z,76373.98
2019-02-10T18:37:06.009Z,76386.13
2019-02-10T18:39:54.076Z,76392.19
2019-02-10T18:43:01.735Z,76406.36
2019-02-10T18:45:54.205Z,76402.31
2019-02-10T18:48:42.690Z,76405.34
2019-02-10T18:51:28.519Z,76416.48
2019-02-10T18:54:11.843Z,76420.53
2019-02-10T18:56:51.132Z,76433.69
2019-02-10T18:59:49.822Z,76440.77
2019-02-10T19:02:38.108Z,76454.94
2019-02-10T19:05:42.751Z,76452.91
2019-02-10T19:08:19.252Z,76461.02
2019-02-10T19:11:07.125Z,76463.03
2019-02-10T19:14:08.442Z,76474.17
2019-02-10T19:17:07.202Z,76479.23
2019-02-10T19:19:58.110Z,76496.44
2019-02-10T19:22:50.658Z,76515.66
2019-02-10T19:25:32.456Z,76524.77
2019-02-10T19:28:24.897Z,76536.92
2019-02-10T19:31:12.786Z,76566.27
2019-02-10T19:34:12.099Z,76571.33
2019-02-10T19:37:07.479Z,76602.70
2019-02-10T19:39:48.390Z,76605.73
2019-02-10T19:42:46.981Z,76629.02
2019-02-10T19:45:30.123Z,76637.11
2019-02-10T19:48:15.533Z,76656.34
2019-02-10T19:51:04.997Z,76666.47
2019-02-10T19:53:52.707Z,76680.64
2019-02-10T19:56:42.083Z,76683.67
2019-02-10T19:59:24.425Z,76689.75
2019-02-10T20:02:06.854Z,76694.80
2019-02-10T20:04:54.608Z,76709.98
2019-02-10T20:07:46.921Z,76723.14
2019-02-10T20:10:25.639Z,76725.17
2019-02-10T20:13:14.965Z,76744.41
2019-02-10T20:16:02.185Z,76756.55
2019-02-10T20:18:57.659Z,76765.66
2019-02-10T20:21:46.785Z,76792.98
2019-02-10T20:24:42.095Z,76807.16
2019-02-10T20:27:31.305Z,76819.30
2019-02-10T20:30:08.438Z,76835.50
2019-02-10T20:32:48.349Z,76843.59
2019-02-10T20:35:46.462Z,76861.81
2019-02-10T20:38:48.014Z,76870.92
2019-02-10T20:41:28.056Z,76874.97
2019-02-10T20:44:14.691Z,76880.03
2019-02-10T20:47:06.856Z,76899.27
2019-02-10T20:50:14.541Z,76925.58
2019-02-10T20:52:51.727Z,76932.66
2019-02-10T20:55:30.927Z,76957.97
2019-02-10T20:58:09.532Z,76966.06
2019-02-10T21:00:58.441Z,76966.06
2019-02-10T21:03:47.861Z,76975.17
2019-02-10T21:06:43.894Z,77000.48
2019-02-10T21:09:45.210Z,77015.67
2019-02-10T21:12:34.669Z,77024.78
2019-02-10T21:15:24.251Z,77035.91
2019-02-10T21:18:16.183Z,77045.02
2019-02-10T21:21:00.377Z,77055.14
2019-02-10T21:23:48.847Z,77063.24
2019-02-10T21:26:38.840Z,77070.33
2019-02-10T21:29:27.430Z,77088.55
2019-02-10T21:32:16.342Z,77108.80
2019-02-10T21:35:21.799Z,77126.00
2019-02-10T21:38:07.172Z,77147.26
2019-02-10T21:40:57.435Z,77161.43
2019-02-10T21:43:38.293Z,77176.61
2019-02-10T21:46:29.777Z,77191.80
2019-02-10T21:49:06.964Z,77200.91
2019-02-10T21:51:38.987Z,77210.02
2019-02-10T21:54:10.010Z,77231.28
2019-02-10T21:56:41.172Z,77241.41
2019-02-10T21:59:11.613Z,77262.66
2019-02-10T22:01:43.069Z,77265.70
2019-02-10T22:04:13.775Z,77270.76
2019-02-10T22:06:44.199Z,77277.84
2019-02-10T22:09:14.591Z,77296.06
2019-02-10T22:11:47.265Z,77288.98
2019-02-10T22:14:17.723Z,77300.11
2019-02-10T22:16:48.428Z,77298.09
2019-02-10T22:19:18.852Z,77313.27
2019-02-10T22:21:49.276Z,77318.34
2019-02-10T22:24:19.754Z,77319.34
2019-02-10T22:26:50.137Z,77327.45
2019-02-10T22:29:23.399Z,77328.46
2019-02-10T22:31:53.721Z,77334.53
2019-02-10T22:34:24.518Z,77341.63
2019-02-10T22:36:55.155Z,77339.59
2019-02-10T22:39:25.594Z,77344.66
2019-02-10T22:41:56.014Z,77357.81
2019-02-10T22:44:26.604Z,77349.72
2019-02-10T22:46:57.122Z,77353.77
2019-02-10T22:49:27.559Z,77357.81
2019-02-10T22:51:58.154Z,77367.94
2019-02-10T22:54:28.617Z,77369.97
2019-02-10T22:56:59.014Z,77382.11
2019-02-10T22:59:29.510Z,77386.16
2019-02-10T23:02:00.008Z,77396.28
2019-02-10T23:04:31.143Z,77394.27
2019-02-10T23:07:01.568Z,77400.34
2019-02-10T23:09:31.941Z,77402.36
2019-02-10T23:12:02.672Z,77413.50
2019-02-10T23:14:34.566Z,77412.48
2019-02-10T23:17:05.053Z,77424.63
2019-02-10T23:19:36.354Z,77426.66
2019-02-10T23:22:06.895Z,77423.62
2019-02-10T23:24:37.373Z,77425.64
2019-02-10T23:27:08.159Z,77435.77
2019-02-10T23:29:38.844Z,77432.73
2019-02-10T23:32:09.544Z,77441.84
2019-02-10T23:34:39.887Z,77450.95
2019-02-10T23:37:10.580Z,77460.06
2019-02-10T23:39:43.259Z,77448.93
2019-02-10T23:42:13.790Z,77455.00
2019-02-10T23:44:44.366Z,77463.10
2019-02-10T23:47:15.181Z,77469.17
2019-02-10T23:49:47.078Z,77467.15
2019-02-10T23:52:17.558Z,77473.22
2019-02-10T23:54:47.985Z,77472.21
2019-02-10T23:57:18.387Z,77480.31
2019-02-10T23:59:49.106Z,77484.36
